sensor_id;sensor_type;location;lat;lon;timestamp;P1;durP1;ratioP1;P2;durP2;ratioP2
9536;SDS011;4807;48.024;11.726;2023-04-03T00:02:57;6.87;;;6.10;;
9536;SDS011;4807;48.024;11.726;2023-04-03T00:06:07;6.77;;;5.00;;
9536;SDS011;4807;48.024;11.726;2023-04-03T00:09:17;7.70;;;6.53;;
9536;SDS011;4807;48.024;11.726;2023-04-03T00:12:25;6.33;;;5.60;;
9536;SDS011;4807;48.024;11.726;2023-04-03T00:15:34;8.00;;;6.00;;
9536;SDS011;4807;48.024;11.726;2023-04-03T00:18:43;8.47;;;5.93;;
9536;SDS011;4807;48.024;11.726;2023-04-03T00:21:53;8.17;;;6.40;;
9536;SDS011;4807;48.024;11.726;2023-04-03T00:25:01;7.10;;;5.57;;
9536;SDS011;4807;48.024;11.726;2023-04-03T00:28:09;8.17;;;6.43;;
9536;SDS011;4807;48.024;11.726;2023-04-03T00:31:18;6.13;;;5.53;;
9536;SDS011;4807;48.024;11.726;2023-04-03T00:34:26;5.97;;;5.00;;
9536;SDS011;4807;48.024;11.726;2023-04-03T00:37:36;6.60;;;5.23;;
9536;SDS011;4807;48.024;11.726;2023-04-03T00:40:45;6.17;;;5.30;;
9536;SDS011;4807;48.024;11.726;2023-04-03T00:43:55;6.10;;;4.77;;
9536;SDS011;4807;48.024;11.726;2023-04-03T00:47:04;5.70;;;4.90;;
9536;SDS011;4807;48.024;11.726;2023-04-03T00:50:16;6.53;;;5.23;;
9536;SDS011;4807;48.024;11.726;2023-04-03T00:53:27;6.57;;;5.37;;
9536;SDS011;4807;48.024;11.726;2023-04-03T00:56:40;7.77;;;5.20;;
9536;SDS011;4807;48.024;11.726;2023-04-03T00:59:52;6.43;;;5.17;;
9536;SDS011;4807;48.024;11.726;2023-04-03T01:03:07;5.53;;;4.83;;
9536;SDS011;4807;48.024;11.726;2023-04-03T01:06:19;6.93;;;4.93;;
9536;SDS011;4807;48.024;11.726;2023-04-03T01:09:35;5.63;;;4.60;;
9536;SDS011;4807;48.024;11.726;2023-04-03T01:12:46;5.17;;;4.60;;
9536;SDS011;4807;48.024;11.726;2023-04-03T01:15:57;7.07;;;5.47;;
9536;SDS011;4807;48.024;11.726;2023-04-03T01:19:10;5.60;;;5.00;;
9536;SDS011;4807;48.024;11.726;2023-04-03T01:22:24;5.90;;;4.70;;
9536;SDS011;4807;48.024;11.726;2023-04-03T01:25:43;4.87;;;4.37;;
9536;SDS011;4807;48.024;11.726;2023-04-03T01:28:55;7.23;;;5.63;;
9536;SDS011;4807;48.024;11.726;2023-04-03T01:32:07;6.13;;;4.90;;
9536;SDS011;4807;48.024;11.726;2023-04-03T01:35:16;6.23;;;5.00;;
9536;SDS011;4807;48.024;11.726;2023-04-03T01:38:24;6.20;;;4.77;;
9536;SDS011;4807;48.024;11.726;2023-04-03T01:41:33;5.17;;;4.30;;
9536;SDS011;4807;48.024;11.726;2023-04-03T01:44:50;5.93;;;4.90;;
9536;SDS011;4807;48.024;11.726;2023-04-03T01:47:59;5.93;;;5.00;;
9536;SDS011;4807;48.024;11.726;2023-04-03T01:51:08;5.53;;;4.97;;
9536;SDS011;4807;48.024;11.726;2023-04-03T01:54:16;6.40;;;5.70;;
9536;SDS011;4807;48.024;11.726;2023-04-03T01:57:25;6.43;;;5.30;;
9536;SDS011;4807;48.024;11.726;2023-04-03T02:00:34;6.57;;;5.50;;
9536;SDS011;4807;48.024;11.726;2023-04-03T02:03:45;5.97;;;5.00;;
9536;SDS011;4807;48.024;11.726;2023-04-03T02:06:53;6.63;;;5.70;;
9536;SDS011;4807;48.024;11.726;2023-04-03T02:10:01;6.27;;;5.57;;
9536;SDS011;4807;48.024;11.726;2023-04-03T02:13:10;7.17;;;6.10;;
9536;SDS011;4807;48.024;11.726;2023-04-03T02:16:19;7.03;;;5.80;;
9536;SDS011;4807;48.024;11.726;2023-04-03T02:19:29;5.33;;;4.83;;
9536;SDS011;4807;48.024;11.726;2023-04-03T02:22:39;6.57;;;5.17;;
9536;SDS011;4807;48.024;11.726;2023-04-03T02:25:48;5.50;;;5.00;;
9536;SDS011;4807;48.024;11.726;2023-04-03T02:28:57;6.27;;;5.60;;
9536;SDS011;4807;48.024;11.726;2023-04-03T02:32:05;7.00;;;5.93;;
9536;SDS011;4807;48.024;11.726;2023-04-03T02:35:15;5.30;;;4.80;;
9536;SDS011;4807;48.024;11.726;2023-04-03T02:38:25;5.83;;;5.00;;
9536;SDS011;4807;48.024;11.726;2023-04-03T02:41:33;8.23;;;6.10;;
9536;SDS011;4807;48.024;11.726;2023-04-03T02:44:47;6.37;;;5.73;;
9536;SDS011;4807;48.024;11.726;2023-04-03T02:47:55;7.27;;;5.10;;
9536;SDS011;4807;48.024;11.726;2023-04-03T02:51:08;5.20;;;4.70;;
9536;SDS011;4807;48.024;11.726;2023-04-03T02:54:16;6.30;;;4.97;;
9536;SDS011;4807;48.024;11.726;2023-04-03T02:57:30;7.03;;;5.13;;
9536;SDS011;4807;48.024;11.726;2023-04-03T03:00:38;7.77;;;5.57;;
9536;SDS011;4807;48.024;11.726;2023-04-03T03:03:46;7.67;;;5.30;;
9536;SDS011;4807;48.024;11.726;2023-04-03T03:06:56;5.83;;;5.20;;
9536;SDS011;4807;48.024;11.726;2023-04-03T03:10:05;7.67;;;6.57;;
9536;SDS011;4807;48.024;11.726;2023-04-03T03:13:14;6.20;;;5.10;;
9536;SDS011;4807;48.024;11.726;2023-04-03T03:16:22;6.60;;;5.90;;
9536;SDS011;4807;48.024;11.726;2023-04-03T03:19:31;7.40;;;5.53;;
9536;SDS011;4807;48.024;11.726;2023-04-03T03:22:40;5.80;;;5.03;;
9536;SDS011;4807;48.024;11.726;2023-04-03T03:25:49;5.87;;;5.07;;
9536;SDS011;4807;48.024;11.726;2023-04-03T03:29:02;7.57;;;5.67;;
9536;SDS011;4807;48.024;11.726;2023-04-03T03:32:11;8.70;;;5.43;;
9536;SDS011;4807;48.024;11.726;2023-04-03T03:35:20;7.10;;;5.63;;
9536;SDS011;4807;48.024;11.726;2023-04-03T03:38:29;6.43;;;5.13;;
9536;SDS011;4807;48.024;11.726;2023-04-03T03:41:39;6.10;;;5.03;;
9536;SDS011;4807;48.024;11.726;2023-04-03T03:44:48;5.33;;;4.83;;
9536;SDS011;4807;48.024;11.726;2023-04-03T03:47:59;6.57;;;5.10;;
9536;SDS011;4807;48.024;11.726;2023-04-03T03:51:09;5.07;;;4.57;;
9536;SDS011;4807;48.024;11.726;2023-04-03T03:54:19;6.73;;;5.17;;
9536;SDS011;4807;48.024;11.726;2023-04-03T03:57:28;6.70;;;5.57;;
9536;SDS011;4807;48.024;11.726;2023-04-03T04:00:37;7.33;;;5.17;;
9536;SDS011;4807;48.024;11.726;2023-04-03T04:03:46;6.80;;;5.20;;
9536;SDS011;4807;48.024;11.726;2023-04-03T04:06:59;5.97;;;5.17;;
9536;SDS011;4807;48.024;11.726;2023-04-03T04:10:10;6.03;;;5.10;;
9536;SDS011;4807;48.024;11.726;2023-04-03T04:13:21;6.07;;;5.27;;
9536;SDS011;4807;48.024;11.726;2023-04-03T04:16:30;4.93;;;4.43;;
9536;SDS011;4807;48.024;11.726;2023-04-03T04:19:44;6.93;;;5.10;;
9536;SDS011;4807;48.024;11.726;2023-04-03T04:22:52;5.40;;;4.73;;
9536;SDS011;4807;48.024;11.726;2023-04-03T04:26:04;7.13;;;4.70;;
9536;SDS011;4807;48.024;11.726;2023-04-03T04:29:16;6.10;;;4.70;;
9536;SDS011;4807;48.024;11.726;2023-04-03T04:32:27;5.10;;;4.60;;
9536;SDS011;4807;48.024;11.726;2023-04-03T04:35:36;6.97;;;4.47;;
9536;SDS011;4807;48.024;11.726;2023-04-03T04:38:45;5.37;;;4.87;;
9536;SDS011;4807;48.024;11.726;2023-04-03T04:41:55;6.27;;;4.90;;
9536;SDS011;4807;48.024;11.726;2023-04-03T04:45:06;4.83;;;4.20;;
9536;SDS011;4807;48.024;11.726;2023-04-03T04:48:17;4.50;;;4.10;;
9536;SDS011;4807;48.024;11.726;2023-04-03T04:51:26;6.47;;;4.77;;
9536;SDS011;4807;48.024;11.726;2023-04-03T04:54:44;5.30;;;4.80;;
9536;SDS011;4807;48.024;11.726;2023-04-03T04:57:54;5.53;;;4.50;;
9536;SDS011;4807;48.024;11.726;2023-04-03T05:01:03;6.40;;;4.43;;
9536;SDS011;4807;48.024;11.726;2023-04-03T05:04:18;5.90;;;4.33;;
9536;SDS011;4807;48.024;11.726;2023-04-03T05:07:30;4.70;;;4.13;;
9536;SDS011;4807;48.024;11.726;2023-04-03T05:10:40;4.73;;;4.30;;
9536;SDS011;4807;48.024;11.726;2023-04-03T05:13:52;4.47;;;4.03;;
9536;SDS011;4807;48.024;11.726;2023-04-03T05:17:02;6.27;;;4.67;;
9536;SDS011;4807;48.024;11.726;2023-04-03T05:20:15;6.03;;;4.63;;
9536;SDS011;4807;48.024;11.726;2023-04-03T05:23:25;6.00;;;4.53;;
9536;SDS011;4807;48.024;11.726;2023-04-03T05:26:36;4.93;;;4.50;;
9536;SDS011;4807;48.024;11.726;2023-04-03T05:29:46;4.77;;;4.20;;
9536;SDS011;4807;48.024;11.726;2023-04-03T05:32:59;5.43;;;4.40;;
9536;SDS011;4807;48.024;11.726;2023-04-03T05:36:16;5.30;;;4.27;;
9536;SDS011;4807;48.024;11.726;2023-04-03T05:39:33;5.90;;;4.67;;
9536;SDS011;4807;48.024;11.726;2023-04-03T05:42:44;5.53;;;4.43;;
9536;SDS011;4807;48.024;11.726;2023-04-03T05:45:56;5.80;;;4.90;;
9536;SDS011;4807;48.024;11.726;2023-04-03T05:49:07;5.13;;;4.63;;
9536;SDS011;4807;48.024;11.726;2023-04-03T05:52:17;4.87;;;4.20;;
9536;SDS011;4807;48.024;11.726;2023-04-03T05:55:31;4.33;;;3.93;;
9536;SDS011;4807;48.024;11.726;2023-04-03T05:58:39;4.73;;;4.23;;
9536;SDS011;4807;48.024;11.726;2023-04-03T06:01:49;4.57;;;4.13;;
9536;SDS011;4807;48.024;11.726;2023-04-03T06:04:59;3.83;;;3.47;;
9536;SDS011;4807;48.024;11.726;2023-04-03T06:08:08;7.87;;;4.10;;
9536;SDS011;4807;48.024;11.726;2023-04-03T06:11:16;4.00;;;3.60;;
9536;SDS011;4807;48.024;11.726;2023-04-03T06:14:25;3.93;;;3.50;;
9536;SDS011;4807;48.024;11.726;2023-04-03T06:17:35;3.87;;;3.40;;
9536;SDS011;4807;48.024;11.726;2023-04-03T06:20:45;4.83;;;3.23;;
9536;SDS011;4807;48.024;11.726;2023-04-03T06:23:53;5.17;;;3.47;;
9536;SDS011;4807;48.024;11.726;2023-04-03T06:27:02;3.33;;;3.03;;
9536;SDS011;4807;48.024;11.726;2023-04-03T06:30:11;3.53;;;3.23;;
9536;SDS011;4807;48.024;11.726;2023-04-03T06:33:21;3.53;;;3.23;;
9536;SDS011;4807;48.024;11.726;2023-04-03T06:36:29;3.50;;;3.03;;
9536;SDS011;4807;48.024;11.726;2023-04-03T06:39:38;3.80;;;3.27;;
9536;SDS011;4807;48.024;11.726;2023-04-03T06:42:46;6.27;;;3.40;;
9536;SDS011;4807;48.024;11.726;2023-04-03T06:45:57;4.30;;;3.33;;
9536;SDS011;4807;48.024;11.726;2023-04-03T06:49:06;3.87;;;3.37;;
9536;SDS011;4807;48.024;11.726;2023-04-03T06:52:16;3.63;;;3.30;;
9536;SDS011;4807;48.024;11.726;2023-04-03T06:55:25;3.43;;;3.13;;
9536;SDS011;4807;48.024;11.726;2023-04-03T06:58:34;3.70;;;3.40;;
9536;SDS011;4807;48.024;11.726;2023-04-03T07:01:42;5.00;;;4.40;;
9536;SDS011;4807;48.024;11.726;2023-04-03T07:04:52;4.97;;;3.20;;
9536;SDS011;4807;48.024;11.726;2023-04-03T07:08:01;5.73;;;3.57;;
9536;SDS011;4807;48.024;11.726;2023-04-03T07:11:09;4.43;;;3.03;;
9536;SDS011;4807;48.024;11.726;2023-04-03T07:14:19;6.23;;;3.30;;
9536;SDS011;4807;48.024;11.726;2023-04-03T07:17:27;3.13;;;2.83;;
9536;SDS011;4807;48.024;11.726;2023-04-03T07:20:37;3.10;;;2.80;;
9536;SDS011;4807;48.024;11.726;2023-04-03T07:23:49;2.80;;;2.60;;
9536;SDS011;4807;48.024;11.726;2023-04-03T07:26:58;2.50;;;2.30;;
9536;SDS011;4807;48.024;11.726;2023-04-03T07:30:08;3.83;;;2.63;;
9536;SDS011;4807;48.024;11.726;2023-04-03T07:33:18;3.13;;;2.40;;
9536;SDS011;4807;48.024;11.726;2023-04-03T07:36:30;2.60;;;2.40;;
9536;SDS011;4807;48.024;11.726;2023-04-03T07:39:39;3.40;;;2.87;;
9536;SDS011;4807;48.024;11.726;2023-04-03T07:42:51;2.87;;;2.63;;
9536;SDS011;4807;48.024;11.726;2023-04-03T07:46:01;2.87;;;2.40;;
9536;SDS011;4807;48.024;11.726;2023-04-03T07:49:12;2.87;;;2.20;;
9536;SDS011;4807;48.024;11.726;2023-04-03T07:52:22;2.20;;;1.87;;
9536;SDS011;4807;48.024;11.726;2023-04-03T07:55:31;2.70;;;2.50;;
9536;SDS011;4807;48.024;11.726;2023-04-03T07:58:40;2.17;;;2.00;;
9536;SDS011;4807;48.024;11.726;2023-04-03T08:01:49;2.53;;;2.33;;
9536;SDS011;4807;48.024;11.726;2023-04-03T08:04:57;3.53;;;2.60;;
9536;SDS011;4807;48.024;11.726;2023-04-03T08:08:08;2.73;;;2.53;;
9536;SDS011;4807;48.024;11.726;2023-04-03T08:11:18;2.37;;;2.03;;
9536;SDS011;4807;48.024;11.726;2023-04-03T08:14:27;2.67;;;2.47;;
9536;SDS011;4807;48.024;11.726;2023-04-03T08:17:37;2.60;;;2.40;;
9536;SDS011;4807;48.024;11.726;2023-04-03T08:20:46;3.13;;;2.73;;
9536;SDS011;4807;48.024;11.726;2023-04-03T08:23:56;3.03;;;2.30;;
9536;SDS011;4807;48.024;11.726;2023-04-03T08:27:04;2.43;;;2.23;;
9536;SDS011;4807;48.024;11.726;2023-04-03T08:30:13;3.10;;;2.57;;
9536;SDS011;4807;48.024;11.726;2023-04-03T08:33:21;4.93;;;2.43;;
9536;SDS011;4807;48.024;11.726;2023-04-03T08:36:30;2.77;;;2.30;;
9536;SDS011;4807;48.024;11.726;2023-04-03T08:39:40;3.50;;;2.53;;
9536;SDS011;4807;48.024;11.726;2023-04-03T08:42:51;4.50;;;2.20;;
9536;SDS011;4807;48.024;11.726;2023-04-03T08:46:13;3.03;;;2.37;;
9536;SDS011;4807;48.024;11.726;2023-04-03T08:49:28;3.13;;;2.43;;
9536;SDS011;4807;48.024;11.726;2023-04-03T08:52:44;3.33;;;3.03;;
9536;SDS011;4807;48.024;11.726;2023-04-03T08:55:58;4.47;;;2.60;;
9536;SDS011;4807;48.024;11.726;2023-04-03T08:59:13;2.90;;;2.60;;
9536;SDS011;4807;48.024;11.726;2023-04-03T09:02:33;2.90;;;2.53;;
9536;SDS011;4807;48.024;11.726;2023-04-03T09:05:49;4.97;;;3.10;;
9536;SDS011;4807;48.024;11.726;2023-04-03T09:09:06;3.57;;;3.13;;
9536;SDS011;4807;48.024;11.726;2023-04-03T09:12:24;2.80;;;2.50;;
9536;SDS011;4807;48.024;11.726;2023-04-03T09:15:41;3.13;;;2.83;;
9536;SDS011;4807;48.024;11.726;2023-04-03T09:18:52;3.77;;;3.13;;
9536;SDS011;4807;48.024;11.726;2023-04-03T09:22:16;3.33;;;2.70;;
9536;SDS011;4807;48.024;11.726;2023-04-03T09:25:31;3.33;;;2.80;;
9536;SDS011;4807;48.024;11.726;2023-04-03T09:28:49;4.07;;;2.20;;
9536;SDS011;4807;48.024;11.726;2023-04-03T09:31:59;2.60;;;2.23;;
9536;SDS011;4807;48.024;11.726;2023-04-03T09:35:17;2.50;;;2.30;;
9536;SDS011;4807;48.024;11.726;2023-04-03T09:38:45;5.23;;;2.90;;
9536;SDS011;4807;48.024;11.726;2023-04-03T09:42:14;2.50;;;2.30;;
9536;SDS011;4807;48.024;11.726;2023-04-03T09:45:30;4.07;;;2.50;;
9536;SDS011;4807;48.024;11.726;2023-04-03T09:48:42;2.60;;;2.40;;
9536;SDS011;4807;48.024;11.726;2023-04-03T09:52:22;4.17;;;2.57;;
9536;SDS011;4807;48.024;11.726;2023-04-03T09:55:33;2.57;;;2.27;;
9536;SDS011;4807;48.024;11.726;2023-04-03T09:58:51;2.37;;;2.10;;
9536;SDS011;4807;48.024;11.726;2023-04-03T10:02:28;2.50;;;2.30;;
9536;SDS011;4807;48.024;11.726;2023-04-03T10:05:43;2.30;;;2.10;;
9536;SDS011;4807;48.024;11.726;2023-04-03T10:08:58;2.87;;;2.30;;
9536;SDS011;4807;48.024;11.726;2023-04-03T10:12:11;2.53;;;2.27;;
9536;SDS011;4807;48.024;11.726;2023-04-03T10:15:27;2.60;;;2.40;;
9536;SDS011;4807;48.024;11.726;2023-04-03T10:18:40;2.37;;;2.17;;
9536;SDS011;4807;48.024;11.726;2023-04-03T10:21:57;2.00;;;1.80;;
9536;SDS011;4807;48.024;11.726;2023-04-03T10:25:12;3.87;;;2.50;;
9536;SDS011;4807;48.024;11.726;2023-04-03T10:28:31;3.53;;;2.80;;
9536;SDS011;4807;48.024;11.726;2023-04-03T10:31:50;2.23;;;2.03;;
9536;SDS011;4807;48.024;11.726;2023-04-03T10:35:13;1.83;;;1.70;;
9536;SDS011;4807;48.024;11.726;2023-04-03T10:38:33;1.90;;;1.80;;
9536;SDS011;4807;48.024;11.726;2023-04-03T10:41:57;2.40;;;2.00;;
9536;SDS011;4807;48.024;11.726;2023-04-03T10:45:24;2.07;;;1.97;;
9536;SDS011;4807;48.024;11.726;2023-04-03T10:48:45;2.87;;;2.43;;
9536;SDS011;4807;48.024;11.726;2023-04-03T10:52:09;3.23;;;2.93;;
9536;SDS011;4807;48.024;11.726;2023-04-03T10:55:29;3.60;;;2.07;;
9536;SDS011;4807;48.024;11.726;2023-04-03T10:58:46;1.87;;;1.67;;
9536;SDS011;4807;48.024;11.726;2023-04-03T11:02:04;1.80;;;1.53;;
9536;SDS011;4807;48.024;11.726;2023-04-03T11:05:26;1.67;;;1.03;;
9536;SDS011;4807;48.024;11.726;2023-04-03T11:08:44;1.17;;;0.90;;
9536;SDS011;4807;48.024;11.726;2023-04-03T11:12:02;1.13;;;1.00;;
9536;SDS011;4807;48.024;11.726;2023-04-03T11:15:19;1.63;;;1.00;;
9536;SDS011;4807;48.024;11.726;2023-04-03T11:18:33;1.47;;;1.37;;
9536;SDS011;4807;48.024;11.726;2023-04-03T11:22:00;2.07;;;1.87;;
9536;SDS011;4807;48.024;11.726;2023-04-03T11:25:19;3.07;;;2.23;;
9536;SDS011;4807;48.024;11.726;2023-04-03T11:28:31;2.53;;;2.33;;
9536;SDS011;4807;48.024;11.726;2023-04-03T11:31:42;3.03;;;2.73;;
9536;SDS011;4807;48.024;11.726;2023-04-03T11:35:14;2.33;;;2.13;;
9536;SDS011;4807;48.024;11.726;2023-04-03T11:38:27;2.50;;;2.30;;
9536;SDS011;4807;48.024;11.726;2023-04-03T11:41:44;2.83;;;2.57;;
9536;SDS011;4807;48.024;11.726;2023-04-03T11:44:53;2.90;;;2.60;;
9536;SDS011;4807;48.024;11.726;2023-04-03T11:52:07;3.67;;;2.83;;
9536;SDS011;4807;48.024;11.726;2023-04-03T11:59:25;3.57;;;2.87;;
9536;SDS011;4807;48.024;11.726;2023-04-03T12:02:35;2.47;;;2.27;;
9536;SDS011;4807;48.024;11.726;2023-04-03T12:05:48;2.07;;;1.97;;
9536;SDS011;4807;48.024;11.726;2023-04-03T12:08:57;4.67;;;2.37;;
9536;SDS011;4807;48.024;11.726;2023-04-03T12:12:24;5.43;;;2.37;;
9536;SDS011;4807;48.024;11.726;2023-04-03T12:15:47;2.33;;;2.13;;
9536;SDS011;4807;48.024;11.726;2023-04-03T12:19:01;2.57;;;2.00;;
9536;SDS011;4807;48.024;11.726;2023-04-03T12:22:12;2.33;;;2.13;;
9536;SDS011;4807;48.024;11.726;2023-04-03T12:28:59;2.07;;;1.90;;
9536;SDS011;4807;48.024;11.726;2023-04-03T12:36:18;4.37;;;2.00;;
9536;SDS011;4807;48.024;11.726;2023-04-03T12:39:47;3.83;;;2.40;;
9536;SDS011;4807;48.024;11.726;2023-04-03T12:43:18;5.00;;;2.33;;
9536;SDS011;4807;48.024;11.726;2023-04-03T12:46:54;3.87;;;2.30;;
9536;SDS011;4807;48.024;11.726;2023-04-03T12:50:23;1.90;;;1.73;;
9536;SDS011;4807;48.024;11.726;2023-04-03T12:53:36;2.20;;;1.97;;
9536;SDS011;4807;48.024;11.726;2023-04-03T12:56:45;4.80;;;2.67;;
9536;SDS011;4807;48.024;11.726;2023-04-03T12:59:54;2.20;;;1.97;;
9536;SDS011;4807;48.024;11.726;2023-04-03T13:03:03;2.93;;;2.23;;
9536;SDS011;4807;48.024;11.726;2023-04-03T13:06:17;2.20;;;1.97;;
9536;SDS011;4807;48.024;11.726;2023-04-03T13:09:29;2.57;;;1.80;;
9536;SDS011;4807;48.024;11.726;2023-04-03T13:12:45;1.63;;;1.53;;
9536;SDS011;4807;48.024;11.726;2023-04-03T13:15:57;2.43;;;1.93;;
9536;SDS011;4807;48.024;11.726;2023-04-03T13:19:14;4.00;;;2.50;;
9536;SDS011;4807;48.024;11.726;2023-04-03T13:22:28;2.20;;;2.10;;
9536;SDS011;4807;48.024;11.726;2023-04-03T13:25:46;6.97;;;3.90;;
9536;SDS011;4807;48.024;11.726;2023-04-03T13:28:58;4.07;;;2.97;;
9536;SDS011;4807;48.024;11.726;2023-04-03T13:32:13;2.10;;;1.90;;
9536;SDS011;4807;48.024;11.726;2023-04-03T13:35:31;2.03;;;1.70;;
9536;SDS011;4807;48.024;11.726;2023-04-03T13:38:45;2.10;;;1.70;;
9536;SDS011;4807;48.024;11.726;2023-04-03T13:42:14;1.20;;;1.20;;
9536;SDS011;4807;48.024;11.726;2023-04-03T13:45:30;1.20;;;1.07;;
9536;SDS011;4807;48.024;11.726;2023-04-03T13:48:41;1.33;;;1.23;;
9536;SDS011;4807;48.024;11.726;2023-04-03T13:51:53;3.43;;;1.20;;
9536;SDS011;4807;48.024;11.726;2023-04-03T13:55:23;3.47;;;1.30;;
9536;SDS011;4807;48.024;11.726;2023-04-03T13:58:34;2.30;;;1.03;;
9536;SDS011;4807;48.024;11.726;2023-04-03T14:01:47;2.70;;;1.30;;
9536;SDS011;4807;48.024;11.726;2023-04-03T14:05:02;2.60;;;1.07;;
9536;SDS011;4807;48.024;11.726;2023-04-03T14:08:14;1.43;;;1.00;;
9536;SDS011;4807;48.024;11.726;2023-04-03T14:11:28;1.20;;;0.87;;
9536;SDS011;4807;48.024;11.726;2023-04-03T14:14:41;2.43;;;0.73;;
9536;SDS011;4807;48.024;11.726;2023-04-03T14:17:51;0.70;;;0.53;;
9536;SDS011;4807;48.024;11.726;2023-04-03T14:21:00;1.20;;;0.90;;
9536;SDS011;4807;48.024;11.726;2023-04-03T14:24:08;1.43;;;0.80;;
9536;SDS011;4807;48.024;11.726;2023-04-03T14:27:19;0.83;;;0.70;;
9536;SDS011;4807;48.024;11.726;2023-04-03T14:30:31;0.87;;;0.83;;
9536;SDS011;4807;48.024;11.726;2023-04-03T14:33:42;1.00;;;0.60;;
9536;SDS011;4807;48.024;11.726;2023-04-03T14:36:50;0.87;;;0.73;;
9536;SDS011;4807;48.024;11.726;2023-04-03T14:40:00;1.10;;;0.80;;
9536;SDS011;4807;48.024;11.726;2023-04-03T14:43:13;1.80;;;1.10;;
9536;SDS011;4807;48.024;11.726;2023-04-03T14:46:24;1.63;;;0.83;;
9536;SDS011;4807;48.024;11.726;2023-04-03T14:49:54;2.00;;;0.60;;
9536;SDS011;4807;48.024;11.726;2023-04-03T14:53:02;1.90;;;0.73;;
9536;SDS011;4807;48.024;11.726;2023-04-03T14:56:11;4.03;;;1.00;;
9536;SDS011;4807;48.024;11.726;2023-04-03T14:59:24;0.70;;;0.70;;
9536;SDS011;4807;48.024;11.726;2023-04-03T15:02:34;1.43;;;0.50;;
9536;SDS011;4807;48.024;11.726;2023-04-03T15:05:46;1.10;;;0.60;;
9536;SDS011;4807;48.024;11.726;2023-04-03T15:08:56;2.57;;;0.90;;
9536;SDS011;4807;48.024;11.726;2023-04-03T15:12:04;1.77;;;0.80;;
9536;SDS011;4807;48.024;11.726;2023-04-03T15:15:18;2.23;;;0.70;;
9536;SDS011;4807;48.024;11.726;2023-04-03T15:18:30;0.70;;;0.60;;
9536;SDS011;4807;48.024;11.726;2023-04-03T15:21:45;1.43;;;0.60;;
9536;SDS011;4807;48.024;11.726;2023-04-03T15:24:53;1.53;;;0.90;;
9536;SDS011;4807;48.024;11.726;2023-04-03T15:28:02;0.80;;;0.60;;
9536;SDS011;4807;48.024;11.726;2023-04-03T15:31:12;0.50;;;0.50;;
9536;SDS011;4807;48.024;11.726;2023-04-03T15:34:20;1.10;;;0.73;;
9536;SDS011;4807;48.024;11.726;2023-04-03T15:37:29;2.03;;;0.80;;
9536;SDS011;4807;48.024;11.726;2023-04-03T15:40:37;0.90;;;0.90;;
9536;SDS011;4807;48.024;11.726;2023-04-03T15:43:46;2.53;;;1.00;;
9536;SDS011;4807;48.024;11.726;2023-04-03T15:46:56;1.47;;;0.80;;
9536;SDS011;4807;48.024;11.726;2023-04-03T15:50:06;3.50;;;1.90;;
9536;SDS011;4807;48.024;11.726;2023-04-03T15:53:15;2.10;;;1.03;;
9536;SDS011;4807;48.024;11.726;2023-04-03T15:56:24;6.80;;;3.10;;
9536;SDS011;4807;48.024;11.726;2023-04-03T15:59:32;1.33;;;1.07;;
9536;SDS011;4807;48.024;11.726;2023-04-03T16:02:42;3.83;;;1.10;;
9536;SDS011;4807;48.024;11.726;2023-04-03T16:05:52;0.70;;;0.70;;
9536;SDS011;4807;48.024;11.726;2023-04-03T16:09:02;2.10;;;1.13;;
9536;SDS011;4807;48.024;11.726;2023-04-03T16:12:11;2.77;;;1.50;;
9536;SDS011;4807;48.024;11.726;2023-04-03T16:15:19;1.67;;;1.10;;
9536;SDS011;4807;48.024;11.726;2023-04-03T16:18:30;1.30;;;0.67;;
9536;SDS011;4807;48.024;11.726;2023-04-03T16:21:41;1.57;;;0.80;;
9536;SDS011;4807;48.024;11.726;2023-04-03T16:24:50;3.70;;;0.70;;
9536;SDS011;4807;48.024;11.726;2023-04-03T16:27:58;1.00;;;0.70;;
9536;SDS011;4807;48.024;11.726;2023-04-03T16:31:07;1.57;;;1.00;;
9536;SDS011;4807;48.024;11.726;2023-04-03T16:34:17;2.23;;;1.37;;
9536;SDS011;4807;48.024;11.726;2023-04-03T16:37:26;0.97;;;0.90;;
9536;SDS011;4807;48.024;11.726;2023-04-03T16:40:37;3.40;;;0.70;;
9536;SDS011;4807;48.024;11.726;2023-04-03T16:43:46;2.03;;;0.77;;
9536;SDS011;4807;48.024;11.726;2023-04-03T16:46:56;1.93;;;1.23;;
9536;SDS011;4807;48.024;11.726;2023-04-03T16:50:07;5.03;;;2.50;;
9536;SDS011;4807;48.024;11.726;2023-04-03T16:53:17;3.50;;;2.00;;
9536;SDS011;4807;48.024;11.726;2023-04-03T16:56:25;1.37;;;0.90;;
9536;SDS011;4807;48.024;11.726;2023-04-03T16:59:34;1.20;;;0.60;;
9536;SDS011;4807;48.024;11.726;2023-04-03T17:02:45;0.80;;;0.70;;
9536;SDS011;4807;48.024;11.726;2023-04-03T17:05:55;0.60;;;0.60;;
9536;SDS011;4807;48.024;11.726;2023-04-03T17:09:05;1.83;;;0.63;;
9536;SDS011;4807;48.024;11.726;2023-04-03T17:12:14;0.73;;;0.40;;
9536;SDS011;4807;48.024;11.726;2023-04-03T17:15:24;0.77;;;0.47;;
9536;SDS011;4807;48.024;11.726;2023-04-03T17:18:34;1.47;;;0.80;;
9536;SDS011;4807;48.024;11.726;2023-04-03T17:21:45;0.33;;;0.33;;
9536;SDS011;4807;48.024;11.726;2023-04-03T17:24:53;0.77;;;0.50;;
9536;SDS011;4807;48.024;11.726;2023-04-03T17:28:03;1.47;;;0.67;;
9536;SDS011;4807;48.024;11.726;2023-04-03T17:31:11;1.63;;;0.70;;
9536;SDS011;4807;48.024;11.726;2023-04-03T17:34:23;1.50;;;0.70;;
9536;SDS011;4807;48.024;11.726;2023-04-03T17:37:33;2.67;;;0.60;;
9536;SDS011;4807;48.024;11.726;2023-04-03T17:40:41;1.13;;;0.67;;
9536;SDS011;4807;48.024;11.726;2023-04-03T17:43:51;0.73;;;0.73;;
9536;SDS011;4807;48.024;11.726;2023-04-03T17:47:01;1.77;;;1.20;;
9536;SDS011;4807;48.024;11.726;2023-04-03T17:50:10;4.53;;;1.30;;
9536;SDS011;4807;48.024;11.726;2023-04-03T17:53:22;1.30;;;0.90;;
9536;SDS011;4807;48.024;11.726;2023-04-03T17:56:32;5.23;;;1.60;;
9536;SDS011;4807;48.024;11.726;2023-04-03T17:59:42;7.47;;;1.83;;
9536;SDS011;4807;48.024;11.726;2023-04-03T18:02:51;3.37;;;1.80;;
9536;SDS011;4807;48.024;11.726;2023-04-03T18:06:01;3.07;;;1.70;;
9536;SDS011;4807;48.024;11.726;2023-04-03T18:09:12;3.60;;;1.93;;
9536;SDS011;4807;48.024;11.726;2023-04-03T18:12:25;1.90;;;0.80;;
9536;SDS011;4807;48.024;11.726;2023-04-03T18:15:33;1.03;;;0.70;;
9536;SDS011;4807;48.024;11.726;2023-04-03T18:18:44;1.23;;;0.80;;
9536;SDS011;4807;48.024;11.726;2023-04-03T18:21:54;2.47;;;0.60;;
9536;SDS011;4807;48.024;11.726;2023-04-03T18:25:09;0.60;;;0.60;;
9536;SDS011;4807;48.024;11.726;2023-04-03T18:28:19;1.63;;;0.90;;
9536;SDS011;4807;48.024;11.726;2023-04-03T18:31:29;1.27;;;0.90;;
9536;SDS011;4807;48.024;11.726;2023-04-03T18:34:41;2.27;;;1.07;;
9536;SDS011;4807;48.024;11.726;2023-04-03T18:37:50;2.20;;;1.23;;
9536;SDS011;4807;48.024;11.726;2023-04-03T18:41:00;1.37;;;1.10;;
9536;SDS011;4807;48.024;11.726;2023-04-03T18:44:14;2.23;;;1.17;;
9536;SDS011;4807;48.024;11.726;2023-04-03T18:47:27;2.03;;;1.30;;
9536;SDS011;4807;48.024;11.726;2023-04-03T18:50:36;2.10;;;0.90;;
9536;SDS011;4807;48.024;11.726;2023-04-03T18:53:44;0.90;;;0.70;;
9536;SDS011;4807;48.024;11.726;2023-04-03T18:56:54;1.27;;;0.63;;
9536;SDS011;4807;48.024;11.726;2023-04-03T19:00:03;0.97;;;0.80;;
9536;SDS011;4807;48.024;11.726;2023-04-03T19:03:13;1.00;;;0.90;;
9536;SDS011;4807;48.024;11.726;2023-04-03T19:06:22;1.57;;;0.83;;
9536;SDS011;4807;48.024;11.726;2023-04-03T19:09:30;2.03;;;1.00;;
9536;SDS011;4807;48.024;11.726;2023-04-03T19:12:41;1.70;;;1.10;;
9536;SDS011;4807;48.024;11.726;2023-04-03T19:15:51;2.30;;;1.27;;
9536;SDS011;4807;48.024;11.726;2023-04-03T19:19:04;1.37;;;1.23;;
9536;SDS011;4807;48.024;11.726;2023-04-03T19:22:13;1.17;;;0.97;;
9536;SDS011;4807;48.024;11.726;2023-04-03T19:25:21;2.27;;;1.73;;
9536;SDS011;4807;48.024;11.726;2023-04-03T19:28:32;2.83;;;1.57;;
9536;SDS011;4807;48.024;11.726;2023-04-03T19:31:41;1.57;;;1.37;;
9536;SDS011;4807;48.024;11.726;2023-04-03T19:34:51;1.60;;;1.10;;
9536;SDS011;4807;48.024;11.726;2023-04-03T19:37:59;1.40;;;1.30;;
9536;SDS011;4807;48.024;11.726;2023-04-03T19:41:09;2.20;;;1.20;;
9536;SDS011;4807;48.024;11.726;2023-04-03T19:44:22;1.93;;;1.23;;
9536;SDS011;4807;48.024;11.726;2023-04-03T19:47:32;1.80;;;1.30;;
9536;SDS011;4807;48.024;11.726;2023-04-03T19:50:41;1.57;;;1.10;;